createdAt,value
2022-12-14T00:01:58.484Z,7.50
2022-12-14T00:04:26.553Z,6.60
2022-12-14T00:06:54.658Z,7.37
2022-12-14T00:09:22.825Z,7.23
2022-12-14T00:11:50.890Z,7.57
2022-12-14T00:14:19.008Z,8.03
2022-12-14T00:16:47.092Z,7.53
2022-12-14T00:19:16.694Z,9.30
2022-12-14T00:21:44.957Z,7.10
2022-12-14T00:24:13.023Z,8.10
2022-12-14T00:26:41.117Z,6.67
2022-12-14T00:29:09.118Z,8.03
2022-12-14T00:31:37.472Z,6.93
2022-12-14T00:34:05.516Z,5.83
2022-12-14T00:36:36.507Z,6.63
2022-12-14T00:39:04.908Z,6.87
2022-12-14T00:41:32.940Z,8.03
2022-12-14T00:44:01.001Z,7.40
2022-12-14T00:46:29.189Z,7.17
2022-12-14T00:48:57.261Z,5.80
2022-12-14T00:51:25.291Z,7.53
2022-12-14T00:53:54.752Z,6.60
2022-12-14T00:56:22.854Z,6.17
2022-12-14T00:58:54.452Z,6.30
2022-12-14T01:01:23.049Z,6.60
2022-12-14T01:04:11.861Z,5.47
2022-12-14T01:06:40.076Z,5.60
2022-12-14T01:09:09.742Z,6.13
2022-12-14T01:11:37.994Z,5.87
2022-12-14T01:14:06.106Z,5.30
2022-12-14T01:16:34.275Z,6.30
2022-12-14T01:19:03.305Z,6.47
2022-12-14T01:21:31.659Z,6.90
2022-12-14T01:24:01.572Z,6.73
2022-12-14T01:26:33.402Z,6.87
2022-12-14T01:29:01.658Z,7.17
2022-12-14T01:31:31.924Z,7.13
2022-12-14T01:34:00.750Z,6.50
2022-12-14T01:36:30.622Z,6.80
2022-12-14T01:39:01.495Z,7.13
2022-12-14T01:41:33.222Z,6.53
2022-12-14T01:44:05.607Z,7.33
2022-12-14T01:46:37.747Z,6.60
2022-12-14T01:49:12.978Z,6.53
2022-12-14T01:51:44.285Z,7.40
2022-12-14T01:54:14.562Z,6.47
2022-12-14T01:56:46.023Z,5.53
2022-12-14T01:59:18.543Z,6.57
2022-12-14T02:01:48.288Z,5.90
2022-12-14T02:04:18.876Z,5.97
2022-12-14T02:06:49.039Z,6.13
2022-12-14T02:09:19.478Z,5.93
2022-12-14T02:11:55.705Z,7.20
2022-12-14T02:14:24.005Z,7.00
2022-12-14T02:20:54.056Z,5.73
2022-12-14T02:23:44.816Z,6.13
2022-12-14T02:26:49.297Z,6.20
2022-12-14T02:29:52.819Z,6.67
2022-12-14T02:32:35.148Z,6.10
2022-12-14T02:35:13.322Z,6.20
2022-12-14T02:37:49.406Z,5.73
2022-12-14T02:40:25.383Z,5.90
2022-12-14T02:43:00.762Z,6.13
2022-12-14T02:45:37.453Z,6.70
2022-12-14T02:48:10.852Z,6.13
2022-12-14T02:50:46.423Z,6.63
2022-12-14T02:53:21.699Z,6.67
2022-12-14T02:55:52.504Z,7.07
2022-12-14T02:58:25.167Z,6.63
2022-12-14T03:06:26.214Z,6.47
2022-12-14T03:08:58.261Z,7.20
2022-12-14T03:11:33.242Z,6.00
2022-12-14T03:14:07.598Z,6.27
2022-12-14T03:16:40.995Z,6.87
2022-12-14T03:19:15.956Z,6.80
2022-12-14T03:21:50.936Z,6.83
2022-12-14T03:24:24.141Z,6.37
2022-12-14T03:26:57.706Z,6.37
2022-12-14T03:29:30.053Z,6.43
2022-12-14T03:32:02.196Z,7.07
2022-12-14T03:34:41.214Z,6.27
2022-12-14T03:37:14.940Z,6.20
2022-12-14T03:39:44.598Z,6.60
2022-12-14T03:42:21.298Z,6.20
2022-12-14T03:44:54.466Z,5.70
2022-12-14T03:47:42.003Z,6.77
2022-12-14T03:50:16.406Z,6.07
2022-12-14T03:52:51.179Z,6.50
2022-12-14T03:55:28.311Z,6.40
2022-12-14T03:58:23.796Z,6.00
2022-12-14T04:00:56.148Z,5.53
2022-12-14T04:03:34.970Z,5.47
2022-12-14T04:06:07.026Z,6.30
2022-12-14T04:08:43.179Z,5.53
2022-12-14T04:11:31.681Z,5.70
2022-12-14T04:14:21.747Z,6.70
2022-12-14T04:17:11.034Z,5.50
2022-12-14T04:19:45.009Z,4.63
2022-12-14T04:22:20.597Z,5.30
2022-12-14T04:25:14.827Z,5.47
2022-12-14T04:27:46.173Z,5.40
2022-12-14T04:30:14.614Z,5.37
2022-12-14T04:32:46.959Z,5.13
2022-12-14T04:35:19.122Z,4.80
2022-12-14T04:37:51.664Z,5.00
2022-12-14T04:40:25.644Z,5.07
2022-12-14T04:42:56.728Z,5.43
2022-12-14T04:45:29.073Z,4.27
2022-12-14T04:48:04.538Z,5.00
2022-12-14T04:50:38.556Z,4.27
2022-12-14T04:53:11.567Z,4.97
2022-12-14T04:55:47.350Z,5.03
2022-12-14T04:58:21.718Z,5.47
2022-12-14T05:01:06.926Z,5.43
2022-12-14T05:03:38.507Z,4.73
2022-12-14T05:06:11.702Z,6.33
2022-12-14T05:09:08.136Z,5.70
2022-12-14T05:11:53.785Z,5.13
2022-12-14T05:14:27.903Z,4.23
2022-12-14T05:16:57.572Z,5.37
2022-12-14T05:19:27.363Z,5.43
2022-12-14T05:21:56.103Z,6.37
2022-12-14T05:24:24.259Z,4.80
2022-12-14T05:26:53.673Z,5.63
2022-12-14T05:29:21.705Z,5.70
2022-12-14T05:31:49.911Z,5.30
2022-12-14T05:34:18.431Z,5.20
2022-12-14T05:36:46.716Z,5.47
2022-12-14T05:39:15.280Z,5.40
2022-12-14T05:41:43.617Z,5.20
2022-12-14T05:44:13.047Z,6.60
2022-12-14T05:46:41.227Z,5.00
2022-12-14T05:49:09.456Z,4.90
2022-12-14T05:51:37.507Z,5.77
2022-12-14T05:54:05.855Z,4.93
2022-12-14T05:56:34.175Z,5.90
2022-12-14T05:59:02.611Z,4.70
2022-12-14T06:01:32.063Z,5.10
2022-12-14T06:04:00.262Z,5.43
2022-12-14T06:06:28.432Z,5.33
2022-12-14T06:08:56.506Z,5.50
2022-12-14T06:11:24.951Z,5.80
2022-12-14T06:13:53.039Z,5.33
2022-12-14T06:16:23.357Z,4.93
2022-12-14T06:18:54.364Z,4.93
2022-12-14T06:21:24.061Z,6.20
2022-12-14T06:23:52.051Z,6.13
2022-12-14T06:26:20.347Z,5.20
2022-12-14T06:28:48.383Z,5.27
2022-12-14T06:31:19.057Z,6.17
2022-12-14T06:33:47.648Z,5.90
2022-12-14T06:36:23.513Z,5.40
2022-12-14T06:38:51.837Z,7.53
2022-12-14T06:41:20.684Z,6.00
2022-12-14T06:43:49.529Z,6.23
2022-12-14T06:46:19.726Z,6.43
2022-12-14T06:48:50.732Z,6.20
2022-12-14T06:51:20.268Z,6.30
2022-12-14T06:53:51.510Z,5.80
2022-12-14T06:56:20.716Z,5.63
2022-12-14T06:58:48.982Z,5.63
2022-12-14T07:01:19.125Z,5.97
2022-12-14T07:03:50.107Z,6.07
2022-12-14T07:06:20.311Z,5.33
2022-12-14T07:08:48.689Z,6.17
2022-12-14T07:11:17.803Z,5.83
2022-12-14T07:13:46.083Z,5.73
2022-12-14T07:16:18.690Z,6.23
2022-12-14T07:18:47.069Z,5.93
2022-12-14T07:21:17.004Z,5.93
2022-12-14T07:23:47.763Z,6.27
2022-12-14T07:26:18.447Z,6.23
2022-12-14T07:28:47.427Z,6.67
2022-12-14T07:31:18.604Z,7.00
2022-12-14T07:33:46.802Z,5.97
2022-12-14T07:36:17.569Z,6.47
2022-12-14T07:38:48.634Z,6.37
2022-12-14T07:41:22.635Z,6.47
2022-12-14T07:43:51.445Z,5.93
2022-12-14T07:46:22.224Z,5.27
2022-12-14T07:48:51.963Z,5.77
2022-12-14T07:51:22.440Z,6.10
2022-12-14T07:53:52.315Z,5.77
2022-12-14T07:56:22.795Z,5.97
2022-12-14T07:58:51.711Z,5.93
2022-12-14T08:01:22.503Z,5.53
2022-12-14T08:03:52.497Z,5.53
2022-12-14T08:06:22.627Z,6.50
2022-12-14T08:08:53.603Z,6.40
2022-12-14T08:11:22.731Z,6.60
2022-12-14T08:13:54.507Z,6.20
2022-12-14T08:16:23.107Z,7.27
2022-12-14T08:18:53.379Z,7.20
2022-12-14T08:21:22.267Z,7.27
2022-12-14T08:23:52.783Z,7.00
2022-12-14T08:26:21.693Z,7.07
2022-12-14T08:28:50.063Z,7.37
2022-12-14T08:31:20.052Z,7.47
2022-12-14T08:33:48.945Z,7.87
2022-12-14T08:36:18.451Z,7.43
2022-12-14T08:38:46.507Z,7.40
2022-12-14T08:41:18.761Z,7.00
2022-12-14T08:43:51.562Z,6.57
2022-12-14T08:46:20.767Z,7.00
2022-12-14T08:48:50.333Z,7.13
2022-12-14T08:51:18.879Z,6.63
2022-12-14T08:53:47.924Z,7.13
2022-12-14T08:56:19.616Z,7.83
2022-12-14T08:58:47.838Z,7.53
2022-12-14T09:01:17.477Z,7.97
2022-12-14T09:03:47.293Z,7.80
2022-12-14T09:06:18.199Z,7.23
2022-12-14T09:08:47.166Z,7.07
2022-12-14T09:11:21.220Z,7.87
2022-12-14T09:13:49.594Z,8.40
2022-12-14T09:16:20.368Z,7.27
2022-12-14T09:18:49.092Z,7.57
2022-12-14T09:21:17.991Z,8.33
2022-12-14T09:23:47.028Z,6.97
2022-12-14T09:26:16.579Z,6.90
2022-12-14T09:28:48.764Z,7.00
2022-12-14T09:31:18.472Z,6.80
2022-12-14T09:33:46.474Z,7.33
2022-12-14T09:36:16.309Z,6.90
2022-12-14T09:38:50.913Z,7.57
2022-12-14T09:41:47.397Z,7.43
2022-12-14T09:44:26.890Z,7.73
2022-12-14T09:47:03.261Z,7.13
2022-12-14T09:49:34.820Z,7.20
2022-12-14T09:52:06.139Z,7.20
2022-12-14T09:54:37.887Z,7.93
2022-12-14T09:57:11.759Z,7.23
2022-12-14T09:59:41.279Z,7.40
2022-12-14T10:02:32.109Z,7.37
2022-12-14T10:05:18.855Z,7.87
2022-12-14T10:07:53.885Z,8.17
2022-12-14T10:10:26.664Z,7.87
2022-12-14T10:13:04.247Z,8.00
2022-12-14T10:15:41.585Z,7.90
2022-12-14T10:18:58.998Z,8.27
2022-12-14T10:21:39.547Z,7.77
2022-12-14T10:24:14.712Z,8.10
2022-12-14T10:26:46.144Z,8.07
2022-12-14T10:29:20.141Z,7.97
2022-12-14T10:31:58.573Z,8.80
2022-12-14T10:34:30.988Z,8.50
2022-12-14T10:37:09.035Z,8.73
2022-12-14T10:39:49.760Z,8.93
2022-12-14T10:42:25.479Z,7.97
2022-12-14T10:48:06.498Z,8.20
2022-12-14T10:50:50.721Z,7.73
2022-12-14T10:53:25.104Z,6.80
2022-12-14T10:56:01.151Z,7.50
2022-12-14T10:58:29.619Z,6.97
2022-12-14T11:00:57.984Z,7.90
2022-12-14T11:03:29.155Z,8.67
2022-12-14T11:06:00.967Z,8.03
2022-12-14T11:08:48.360Z,6.23
2022-12-14T11:11:19.695Z,7.83
2022-12-14T11:13:55.791Z,7.00
2022-12-14T11:16:36.565Z,6.67
2022-12-14T11:19:07.862Z,7.20
2022-12-14T11:21:38.038Z,7.53
2022-12-14T11:24:07.156Z,7.27
2022-12-14T11:26:38.857Z,7.17
2022-12-14T11:29:16.190Z,7.43
2022-12-14T11:31:46.632Z,7.03
2022-12-14T11:34:27.414Z,7.13
2022-12-14T11:36:55.481Z,6.33
2022-12-14T11:39:25.075Z,7.77
2022-12-14T11:42:02.466Z,7.67
2022-12-14T11:44:33.346Z,7.17
2022-12-14T11:47:06.750Z,7.23
2022-12-14T11:49:43.951Z,7.40
2022-12-14T11:52:14.381Z,7.73
2022-12-14T11:54:49.494Z,7.43
2022-12-14T11:57:25.875Z,7.53
2022-12-14T11:59:57.613Z,7.30
2022-12-14T12:02:30.089Z,8.07
2022-12-14T12:05:06.098Z,7.77
2022-12-14T12:07:36.282Z,6.77
2022-12-14T12:10:18.579Z,7.17
2022-12-14T12:12:54.689Z,7.00
2022-12-14T12:15:26.722Z,6.33
2022-12-14T12:18:00.322Z,6.20
2022-12-14T12:20:35.280Z,5.33
2022-12-14T12:23:08.981Z,7.10
2022-12-14T12:25:39.688Z,7.43
2022-12-14T12:28:17.953Z,8.30
2022-12-14T12:30:50.836Z,8.10
2022-12-14T12:33:32.969Z,6.87
2022-12-14T12:36:05.395Z,6.27
2022-12-14T12:38:52.874Z,7.03
2022-12-14T12:41:28.185Z,7.23
2022-12-14T12:44:02.341Z,7.13
2022-12-14T12:46:35.912Z,7.37
2022-12-14T12:49:15.607Z,7.40
2022-12-14T12:51:49.563Z,7.23
2022-12-14T12:54:22.861Z,6.93
2022-12-14T12:56:52.995Z,5.80
2022-12-14T12:59:24.339Z,7.77
2022-12-14T13:01:56.116Z,6.93
2022-12-14T13:04:32.749Z,6.73
2022-12-14T13:07:07.267Z,7.67
2022-12-14T13:09:41.710Z,6.63
2022-12-14T13:12:18.165Z,6.97
2022-12-14T13:14:49.988Z,6.33
2022-12-14T13:17:29.034Z,6.37
2022-12-14T13:19:58.788Z,6.67
2022-12-14T13:22:31.054Z,7.00
2022-12-14T13:25:03.830Z,6.23
2022-12-14T13:28:02.159Z,6.40
2022-12-14T13:30:57.995Z,5.83
2022-12-14T13:33:45.709Z,4.87
2022-12-14T13:36:51.884Z,5.30
2022-12-14T13:39:50.698Z,5.10
2022-12-14T13:42:28.149Z,5.30
2022-12-14T13:45:00.278Z,5.57
2022-12-14T13:47:34.743Z,4.30
2022-12-14T13:50:34.666Z,4.10
2022-12-14T13:53:01.097Z,4.53
2022-12-14T13:55:36.018Z,4.83
2022-12-14T13:58:17.135Z,5.03
2022-12-14T14:01:00.342Z,5.13
2022-12-14T14:03:53.261Z,5.33
2022-12-14T14:06:39.109Z,4.40
2022-12-14T14:09:59.651Z,4.80
2022-12-14T14:12:44.931Z,5.73
2022-12-14T14:15:36.830Z,4.90
2022-12-14T14:18:14.787Z,4.67
2022-12-14T14:20:44.809Z,4.83
2022-12-14T14:34:51.085Z,4.23
2022-12-14T14:37:41.999Z,3.90
2022-12-14T14:43:30.238Z,4.60
2022-12-14T14:46:01.475Z,4.20
2022-12-14T14:48:35.613Z,4.10
2022-12-14T14:51:08.792Z,4.83
2022-12-14T14:53:37.721Z,4.70
2022-12-14T14:56:39.933Z,5.53
2022-12-14T14:59:51.313Z,5.53
2022-12-14T15:02:33.389Z,5.40
2022-12-14T15:05:33.211Z,4.97
2022-12-14T15:07:55.674Z,5.63
2022-12-14T15:10:31.511Z,5.43
2022-12-14T15:13:04.930Z,5.67
2022-12-14T15:15:38.238Z,5.77
2022-12-14T15:18:17.602Z,5.73
2022-12-14T15:20:55.207Z,5.93
2022-12-14T15:23:25.675Z,5.23
2022-12-14T15:25:59.027Z,5.37
2022-12-14T15:28:32.075Z,5.20
2022-12-14T15:31:01.159Z,5.27
2022-12-14T15:33:34.238Z,5.47
2022-12-14T15:36:08.141Z,4.90
2022-12-14T15:38:38.458Z,6.40
2022-12-14T15:41:13.768Z,5.83
2022-12-14T15:43:45.174Z,5.90
2022-12-14T15:46:17.528Z,5.33
2022-12-14T15:48:45.945Z,5.73
2022-12-14T15:51:17.759Z,5.40
2022-12-14T15:53:49.946Z,5.83
2022-12-14T15:56:24.914Z,5.27
2022-12-14T15:58:54.387Z,5.93
2022-12-14T16:01:25.325Z,6.70
2022-12-14T16:03:56.218Z,7.03
2022-12-14T16:06:28.662Z,6.60
2022-12-14T16:09:01.062Z,7.13
2022-12-14T16:11:37.923Z,6.90
2022-12-14T16:14:17.434Z,6.93
2022-12-14T16:16:45.801Z,6.63
2022-12-14T16:19:27.321Z,6.80
2022-12-14T16:22:13.179Z,7.20
2022-12-14T16:25:08.608Z,8.07
2022-12-14T16:27:40.196Z,6.93
2022-12-14T16:30:21.891Z,7.40
2022-12-14T16:32:52.559Z,7.23
2022-12-14T16:35:24.695Z,8.13
2022-12-14T16:37:54.648Z,14.53
2022-12-14T16:40:33.746Z,12.00
2022-12-14T16:43:02.269Z,9.47
2022-12-14T16:46:11.485Z,9.43
2022-12-14T16:48:43.449Z,7.60
2022-12-14T16:51:50.992Z,8.90
2022-12-14T16:54:24.210Z,8.27
2022-12-14T16:56:58.918Z,8.27
2022-12-14T16:59:31.390Z,8.73
2022-12-14T17:01:59.640Z,8.10
2022-12-14T17:04:35.052Z,8.77
2022-12-14T17:07:04.226Z,9.97
2022-12-14T17:09:35.417Z,13.10
2022-12-14T17:12:15.531Z,13.80
2022-12-14T17:14:49.441Z,17.27
2022-12-14T17:17:22.073Z,17.27
2022-12-14T17:19:50.435Z,14.80
2022-12-14T17:22:24.061Z,16.70
2022-12-14T17:24:52.366Z,16.43
2022-12-14T17:27:22.298Z,14.83
2022-12-14T17:29:50.641Z,12.63
2022-12-14T17:32:19.524Z,11.63
2022-12-14T17:34:48.051Z,12.27
2022-12-14T17:37:19.328Z,13.50
2022-12-14T17:39:47.691Z,15.03
2022-12-14T17:42:17.761Z,14.17
2022-12-14T17:44:53.183Z,15.27
2022-12-14T17:47:22.450Z,16.30
2022-12-14T17:49:50.522Z,14.70
2022-12-14T17:52:21.255Z,11.53
2022-12-14T17:54:49.306Z,12.93
2022-12-14T17:57:18.825Z,13.03
2022-12-14T17:59:48.714Z,12.93
2022-12-14T18:02:30.012Z,12.47
2022-12-14T18:04:58.341Z,11.50
2022-12-14T18:07:26.636Z,10.77
2022-12-14T18:09:54.717Z,9.40
2022-12-14T18:12:25.245Z,10.13
2022-12-14T18:14:55.285Z,10.13
2022-12-14T18:17:23.326Z,8.63
2022-12-14T18:19:51.407Z,9.67
2022-12-14T18:22:19.519Z,9.53
2022-12-14T18:24:49.279Z,9.97
2022-12-14T18:27:17.508Z,10.40
2022-12-14T18:29:45.531Z,9.17
2022-12-14T18:32:15.704Z,9.83
2022-12-14T18:34:43.793Z,8.43
2022-12-14T18:37:11.997Z,8.40
2022-12-14T18:39:40.252Z,9.20
2022-12-14T18:42:08.318Z,7.60
2022-12-14T18:44:36.384Z,8.43
2022-12-14T18:47:33.116Z,8.60
2022-12-14T18:49:53.960Z,8.67
2022-12-14T18:52:22.102Z,8.13
2022-12-14T18:54:54.188Z,8.97
2022-12-14T18:57:22.366Z,9.03
2022-12-14T18:59:52.470Z,10.47
2022-12-14T19:02:20.758Z,11.37
2022-12-14T19:04:49.207Z,12.13
2022-12-14T19:07:18.684Z,13.63
2022-12-14T19:09:46.941Z,13.37
2022-12-14T19:12:14.997Z,12.80
2022-12-14T19:14:43.114Z,12.40
2022-12-14T19:17:11.201Z,11.07
2022-12-14T19:19:44.233Z,11.30
2022-12-14T19:22:12.789Z,11.57
2022-12-14T19:24:44.476Z,11.43
2022-12-14T19:27:15.800Z,12.77
2022-12-14T19:29:43.890Z,11.40
2022-12-14T19:32:12.018Z,11.70
2022-12-14T19:34:40.144Z,12.57
2022-12-14T19:37:08.159Z,12.43
2022-12-14T19:39:36.224Z,12.57
2022-12-14T19:42:05.682Z,13.20
2022-12-14T19:44:34.684Z,11.50
2022-12-14T19:47:03.033Z,12.80
2022-12-14T19:49:31.127Z,11.37
2022-12-14T19:51:59.244Z,11.47
2022-12-14T19:54:28.399Z,11.40
2022-12-14T19:56:56.462Z,13.40
2022-12-14T19:59:25.979Z,12.93
2022-12-14T20:01:54.196Z,14.13
2022-12-14T20:04:22.621Z,14.47
2022-12-14T20:06:50.790Z,13.80
2022-12-14T20:09:19.181Z,13.53
2022-12-14T20:11:47.900Z,16.77
2022-12-14T20:14:16.236Z,15.43
2022-12-14T20:16:45.864Z,13.03
2022-12-14T20:19:14.646Z,13.47
2022-12-14T20:21:42.756Z,12.03
2022-12-14T20:24:11.836Z,12.70
2022-12-14T20:26:40.494Z,11.70
2022-12-14T20:29:08.708Z,12.03
2022-12-14T20:31:37.941Z,11.90
2022-12-14T20:34:09.008Z,11.70
2022-12-14T20:36:37.171Z,11.80
2022-12-14T20:39:06.708Z,12.37
2022-12-14T20:41:35.460Z,13.17
2022-12-14T20:44:03.680Z,11.87
2022-12-14T20:46:33.554Z,12.60
2022-12-14T20:49:03.361Z,12.93
2022-12-14T20:51:34.595Z,13.10
2022-12-14T20:54:03.846Z,15.57
2022-12-14T20:56:32.136Z,10.80
2022-12-14T20:59:00.166Z,10.57
2022-12-14T21:01:28.337Z,11.13
2022-12-14T21:03:57.698Z,10.87
2022-12-14T21:06:25.992Z,11.10
2022-12-14T21:09:10.178Z,10.20
2022-12-14T21:11:57.288Z,10.83
2022-12-14T21:14:27.099Z,11.60
2022-12-14T21:16:55.566Z,10.60
2022-12-14T21:19:24.151Z,11.17
2022-12-14T21:21:54.080Z,12.20
2022-12-14T21:25:02.479Z,10.70
2022-12-14T21:27:17.212Z,11.67
2022-12-14T21:29:45.406Z,10.63
2022-12-14T21:32:13.963Z,10.60
2022-12-14T21:34:42.760Z,11.70
2022-12-14T21:37:11.296Z,10.37
2022-12-14T21:39:40.706Z,10.43
2022-12-14T21:42:10.598Z,11.17
2022-12-14T21:44:39.409Z,10.67
2022-12-14T21:47:09.678Z,9.70
2022-12-14T21:49:38.755Z,10.80
2022-12-14T21:52:07.907Z,9.53
2022-12-14T21:54:36.240Z,9.77
2022-12-14T21:57:23.194Z,10.90
2022-12-14T21:59:51.289Z,11.03
2022-12-14T22:02:22.595Z,9.27
2022-12-14T22:04:55.913Z,10.10
2022-12-14T22:07:26.495Z,10.20
2022-12-14T22:09:54.542Z,10.83
2022-12-14T22:12:23.994Z,10.30
2022-12-14T22:14:52.277Z,9.57
2022-12-14T22:17:20.352Z,9.63
2022-12-14T22:19:49.021Z,10.40
2022-12-14T22:23:11.949Z,10.87
2022-12-14T22:25:39.977Z,10.47
2022-12-14T22:28:09.335Z,10.47
2022-12-14T22:30:38.296Z,10.47
2022-12-14T22:33:07.820Z,10.67
2022-12-14T22:35:36.118Z,10.77
2022-12-14T22:38:04.193Z,10.90
2022-12-14T22:40:32.955Z,9.73
2022-12-14T22:43:01.204Z,9.97
2022-12-14T22:45:30.619Z,9.60
2022-12-14T22:47:59.092Z,11.13
2022-12-14T22:50:27.082Z,11.33
2022-12-14T22:52:55.139Z,11.10
2022-12-14T22:55:24.332Z,11.07
2022-12-14T22:57:52.414Z,9.33
2022-12-14T23:00:20.747Z,9.50
2022-12-14T23:02:50.545Z,10.87
2022-12-14T23:05:19.342Z,10.67
2022-12-14T23:07:47.608Z,10.73
2022-12-14T23:10:33.501Z,10.63
2022-12-14T23:13:19.179Z,10.10
2022-12-14T23:16:04.896Z,10.53
2022-12-14T23:18:52.102Z,10.80
2022-12-14T23:21:37.854Z,8.47
2022-12-14T23:24:25.223Z,10.17
2022-12-14T23:27:10.760Z,9.10
2022-12-14T23:29:56.505Z,9.57
2022-12-14T23:32:42.035Z,9.90
2022-12-14T23:35:29.008Z,9.67
2022-12-14T23:38:14.643Z,9.80
2022-12-14T23:41:00.129Z,9.17
2022-12-14T23:43:45.694Z,10.17
2022-12-14T23:46:31.248Z,9.63
2022-12-14T23:49:16.579Z,9.33
2022-12-14T23:52:03.327Z,8.50
2022-12-14T23:54:48.792Z,9.27
2022-12-14T23:57:34.179Z,9.20
